Tibooburra, Australia
Current Conditions -  °F | °C
As of 10:00 PM on Wednesday 28 Jan 2015 (Local Time) from YBHI Reporting Station
Clear Clear  
Wind Chill: 77°   Ceiling: Unl
Heat Index: 78°   Visibility: 6mi
Dew Point: 46°   Wind: 10mph
Humidity: 34%   Direction: 170°S
Pressure: 29.88"   Gusts: NA
Location:  29.43°S, 142.01°E
Report Text: YBHI 281100Z AUTO 17009KT 9999 // NCD 25/08 Q1012
Loading
Personal Weather Stations






























Interactive Weather Map New forecast layout! Learn more

10-Day Weather Forecast

Advertisements
Track Severe Weather on mobile